createdAt,value
2017-10-09T00:00:26.061Z,5.99
2017-10-09T00:01:26.367Z,6.37
2017-10-09T00:02:26.026Z,6.18
2017-10-09T00:03:26.010Z,6.18
2017-10-09T00:04:26.316Z,6.56
2017-10-09T00:05:26.292Z,6.37
2017-10-09T00:06:26.281Z,6.18
2017-10-09T00:07:26.269Z,6.56
2017-10-09T00:08:26.246Z,6.75
2017-10-09T00:09:26.226Z,6.75
2017-10-09T00:10:26.209Z,7.22
2017-10-09T00:11:25.870Z,7.32
2017-10-09T00:12:26.174Z,7.7
2017-10-09T00:13:26.159Z,7.79
2017-10-09T00:14:26.137Z,7.6
2017-10-09T00:15:25.799Z,7.98
2017-10-09T00:16:25.785Z,8.17
2017-10-09T00:17:26.288Z,8.36
2017-10-09T00:18:25.748Z,8.56
2017-10-09T00:19:25.731Z,8.75
2017-10-09T00:20:26.036Z,9.03
2017-10-09T00:21:26.015Z,8.75
2017-10-09T00:22:26.001Z,9.12
2017-10-09T00:23:25.667Z,9.22
2017-10-09T00:24:25.642Z,9.12
2017-10-09T00:25:25.960Z,9.41
2017-10-09T00:26:25.933Z,9.41
2017-10-09T00:27:25.915Z,9.79
2017-10-09T00:28:25.579Z,9.31
2017-10-09T00:29:25.560Z,9.69
2017-10-09T00:30:25.864Z,9.79
2017-10-09T00:31:25.843Z,9.89
2017-10-09T00:32:25.830Z,10.27
2017-10-09T00:33:25.808Z,10.46
2017-10-09T00:34:25.472Z,10.74
2017-10-09T00:35:25.456Z,10.74
2017-10-09T00:36:25.756Z,11.12
2017-10-09T00:37:25.420Z,11.12
2017-10-09T00:38:25.722Z,11.69
2017-10-09T00:39:25.387Z,11.6
2017-10-09T00:40:25.692Z,11.98
2017-10-09T00:41:25.350Z,12.07
2017-10-09T00:42:25.652Z,12.64
2017-10-09T00:43:25.634Z,12.64
2017-10-09T00:44:25.619Z,13.02
2017-10-09T00:45:25.602Z,13.11
2017-10-09T00:46:25.267Z,13.49
2017-10-09T00:47:25.249Z,12.92
2017-10-09T00:48:25.546Z,13.59
2017-10-09T00:49:25.234Z,13.02
2017-10-09T00:50:25.192Z,13.02
2017-10-09T00:51:25.495Z,13.21
2017-10-09T00:52:25.479Z,13.12
2017-10-09T00:53:25.137Z,13.31
2017-10-09T00:54:25.121Z,13.02
2017-10-09T00:55:25.428Z,12.45
2017-10-09T00:56:25.409Z,12.63
2017-10-09T00:57:25.069Z,11.97
2017-10-09T00:58:25.369Z,11.88
2017-10-09T00:59:25.034Z,12.26
2017-10-09T01:00:25.334Z,11.88
2017-10-09T01:01:25.002Z,11.6
2017-10-09T01:02:25.301Z,11.41
2017-10-09T01:03:25.288Z,11.5
2017-10-09T01:04:24.946Z,11.31
2017-10-09T01:05:25.251Z,11.03
2017-10-09T01:06:24.912Z,11.03
2017-10-09T01:07:25.215Z,10.74
2017-10-09T01:08:24.873Z,10.83
2017-10-09T01:09:25.181Z,10.93
2017-10-09T01:10:25.170Z,11.03
2017-10-09T01:11:25.140Z,11.03
2017-10-09T01:12:24.806Z,11.03
2017-10-09T01:13:25.111Z,10.83
2017-10-09T01:14:25.092Z,10.93
2017-10-09T01:15:25.074Z,10.83
2017-10-09T01:16:25.058Z,11.22
2017-10-09T01:17:24.722Z,11.12
2017-10-09T01:18:24.701Z,11.41
2017-10-09T01:19:24.680Z,11.5
2017-10-09T01:20:24.991Z,11.22
2017-10-09T01:21:24.971Z,11.69
2017-10-09T01:22:24.636Z,11.6
2017-10-09T01:23:24.946Z,11.69
2017-10-09T01:24:24.916Z,11.69
2017-10-09T01:25:24.580Z,11.88
2017-10-09T01:26:24.881Z,12.07
2017-10-09T01:27:24.862Z,11.69
2017-10-09T01:28:24.851Z,11.69
2017-10-09T01:29:24.509Z,11.98
2017-10-09T01:30:24.809Z,12.17
2017-10-09T01:31:24.792Z,11.79
2017-10-09T01:32:24.455Z,12.17
2017-10-09T01:33:24.760Z,12.26
2017-10-09T01:34:24.746Z,12.07
2017-10-09T01:35:24.723Z,12.74
2017-10-09T01:36:24.709Z,12.74
2017-10-09T01:37:24.690Z,12.45
2017-10-09T01:38:24.671Z,13.12
2017-10-09T01:39:24.652Z,13.21
2017-10-09T01:40:24.638Z,13.21
2017-10-09T01:41:24.617Z,13.4
2017-10-09T01:42:24.280Z,13.5
2017-10-09T01:43:24.263Z,14.07
2017-10-09T01:44:24.250Z,14.17
2017-10-09T01:45:24.547Z,13.97
2017-10-09T01:46:24.530Z,13.78
2017-10-09T01:47:24.201Z,13.97
2017-10-09T01:48:24.175Z,14.07
2017-10-09T01:49:24.160Z,14.26
2017-10-09T01:50:24.143Z,14.17
2017-10-09T01:51:24.125Z,14.17
2017-10-09T01:52:24.429Z,14.64
2017-10-09T01:53:24.436Z,14.73
2017-10-09T01:54:24.073Z,14.92
2017-10-09T01:55:24.055Z,14.54
2017-10-09T01:56:24.039Z,14.83
2017-10-09T01:57:24.343Z,14.83
2017-10-09T01:58:24.325Z,14.83
2017-10-09T01:59:24.310Z,14.83
2017-10-09T02:00:24.289Z,14.64
2017-10-09T02:01:24.269Z,14.36
2017-10-09T02:02:24.257Z,14.54
2017-10-09T02:03:24.236Z,14.64
2017-10-09T02:04:24.224Z,14.63
2017-10-09T02:05:24.200Z,14.45
2017-10-09T02:06:24.181Z,14.54
2017-10-09T02:07:24.169Z,14.54
2017-10-09T02:08:24.149Z,14.54
2017-10-09T02:09:23.810Z,14.63
2017-10-09T02:10:23.794Z,14.36
2017-10-09T02:11:24.112Z,14.83
2017-10-09T02:12:24.090Z,14.82
2017-10-09T02:13:24.064Z,14.54
2017-10-09T02:14:23.722Z,14.54
2017-10-09T02:15:23.704Z,14.73
2017-10-09T02:16:24.008Z,14.63
2017-10-09T02:17:24.196Z,14.82
2017-10-09T02:18:23.972Z,14.82
2017-10-09T02:19:23.634Z,14.06
2017-10-09T02:20:23.939Z,14.15
2017-10-09T02:21:23.602Z,13.69
2017-10-09T02:22:23.583Z,14.06
2017-10-09T02:23:23.563Z,14.15
2017-10-09T02:24:23.872Z,13.87
2017-10-09T02:25:23.531Z,13.87
2017-10-09T02:26:23.835Z,13.88
2017-10-09T02:27:23.494Z,13.88
2017-10-09T02:28:23.793Z,13.87
2017-10-09T02:29:23.463Z,13.88
2017-10-09T02:30:23.441Z,13.87
2017-10-09T02:31:23.751Z,14.15
2017-10-09T02:32:23.732Z,14.06
2017-10-09T02:33:23.390Z,13.97
2017-10-09T02:34:23.692Z,14.07
2017-10-09T02:35:23.352Z,13.78
2017-10-09T02:36:23.334Z,14.06
2017-10-09T02:37:23.636Z,13.96
2017-10-09T02:38:23.298Z,14.06
2017-10-09T02:39:23.281Z,14.07
2017-10-09T02:40:23.267Z,13.96
2017-10-09T02:41:23.571Z,13.97
2017-10-09T02:42:23.554Z,14.25
2017-10-09T02:43:23.537Z,14.63
2017-10-09T02:44:23.196Z,14.54
2017-10-09T02:45:23.506Z,14.82
2017-10-09T02:46:23.482Z,14.54
2017-10-09T02:47:23.140Z,14.44
2017-10-09T02:48:23.124Z,14.54
2017-10-09T02:49:23.427Z,14.63
2017-10-09T02:50:23.409Z,14.63
2017-10-09T02:51:23.397Z,15.01
2017-10-09T02:52:23.059Z,15.2
2017-10-09T02:53:23.357Z,15.39
2017-10-09T02:54:23.347Z,15.01
2017-10-09T02:55:22.998Z,15.11
2017-10-09T02:56:23.303Z,15.2
2017-10-09T02:57:23.283Z,15.2
2017-10-09T02:58:23.268Z,15.11
2017-10-09T02:59:22.930Z,15.3
2017-10-09T03:00:23.232Z,15.2
2017-10-09T03:01:23.213Z,15.2
2017-10-09T03:02:23.197Z,15.11
2017-10-09T03:03:23.180Z,15.2
2017-10-09T03:04:22.840Z,15.48
2017-10-09T03:05:22.819Z,14.63
2017-10-09T03:06:23.124Z,14.35
2017-10-09T03:07:22.789Z,15.2
2017-10-09T03:08:23.094Z,14.63
2017-10-09T03:09:23.069Z,14.54
2017-10-09T03:10:22.733Z,14.63
2017-10-09T03:11:23.038Z,14.82
2017-10-09T03:12:23.015Z,14.73
2017-10-09T03:13:22.680Z,14.73
2017-10-09T03:14:22.663Z,14.92
2017-10-09T03:15:22.964Z,14.73
2017-10-09T03:16:22.946Z,14.63
2017-10-09T03:17:22.927Z,14.73
2017-10-09T03:18:22.587Z,15.01
2017-10-09T03:19:22.568Z,15.01
2017-10-09T03:20:22.873Z,15.3
2017-10-09T03:21:22.539Z,15.3
2017-10-09T03:22:22.840Z,15.11
2017-10-09T03:23:22.496Z,15.58
2017-10-09T03:24:22.480Z,15.11
2017-10-09T03:25:22.463Z,15.11
2017-10-09T03:26:22.765Z,15.2
2017-10-09T03:27:22.434Z,15.11
2017-10-09T03:28:22.739Z,15.11
2017-10-09T03:29:22.718Z,15.3
2017-10-09T03:30:22.374Z,15.39
2017-10-09T03:31:22.675Z,16.06
2017-10-09T03:32:22.657Z,15.87
2017-10-09T03:33:22.642Z,15.77
2017-10-09T03:34:22.621Z,15.96
2017-10-09T03:35:22.285Z,15.77
2017-10-09T03:36:22.268Z,15.77
2017-10-09T03:37:22.569Z,15.58
2017-10-09T03:38:22.553Z,16.15
2017-10-09T03:39:22.223Z,16.14
2017-10-09T03:40:22.206Z,16.43
2017-10-09T03:41:22.500Z,16.24
2017-10-09T03:42:22.480Z,16.33
2017-10-09T03:43:22.141Z,16.43
2017-10-09T03:44:22.442Z,16.33
2017-10-09T03:45:22.421Z,16.43
2017-10-09T03:46:22.407Z,16.24
2017-10-09T03:47:22.065Z,16.14
2017-10-09T03:48:22.047Z,16.24
2017-10-09T03:49:22.348Z,15.86
2017-10-09T03:50:22.349Z,15.77
2017-10-09T03:51:22.317Z,15.86
2017-10-09T03:52:22.299Z,15.77
2017-10-09T03:53:22.277Z,15.58
2017-10-09T03:54:21.939Z,15.39
2017-10-09T03:55:22.241Z,15.29
2017-10-09T03:56:21.905Z,15.58
2017-10-09T03:57:21.897Z,15.1
2017-10-09T03:58:21.879Z,15.2
2017-10-09T03:59:21.854Z,15.48
2017-10-09T04:00:22.157Z,15.86
2017-10-09T04:01:22.131Z,15.86
2017-10-09T04:02:22.120Z,15.67
2017-10-09T04:03:22.099Z,15.67
2017-10-09T04:04:22.088Z,15.77
2017-10-09T04:05:21.745Z,15.67
2017-10-09T04:06:22.050Z,15.67
2017-10-09T04:07:21.716Z,16.24
2017-10-09T04:08:22.009Z,16.14
2017-10-09T04:09:21.988Z,16.43
2017-10-09T04:10:21.969Z,15.86
2017-10-09T04:11:21.949Z,15.95
2017-10-09T04:12:21.616Z,15.77
2017-10-09T04:13:21.593Z,15.48
2017-10-09T04:14:21.892Z,15.48
2017-10-09T04:15:21.879Z,15.2
2017-10-09T04:16:21.868Z,15.1
2017-10-09T04:17:21.728Z,15.29
2017-10-09T04:18:21.826Z,15.2
2017-10-09T04:19:21.814Z,14.82
2017-10-09T04:20:21.470Z,14.73
2017-10-09T04:21:21.451Z,14.44
2017-10-09T04:22:21.436Z,14.73
2017-10-09T04:23:21.737Z,14.63
2017-10-09T04:24:21.414Z,14.44
2017-10-09T04:25:21.698Z,14.35
2017-10-09T04:26:21.679Z,14.25
2017-10-09T04:27:21.660Z,14.44
2017-10-09T04:28:21.644Z,14.25
2017-10-09T04:29:21.622Z,14.35
2017-10-09T04:30:21.286Z,13.78
2017-10-09T04:31:21.592Z,13.78
2017-10-09T04:32:21.254Z,14.06
2017-10-09T04:33:21.554Z,14.25
2017-10-09T04:34:21.266Z,14.15
2017-10-09T04:35:21.203Z,14.06
2017-10-09T04:36:21.182Z,14.06
2017-10-09T04:37:21.164Z,13.87
2017-10-09T04:38:21.150Z,13.96
2017-10-09T04:39:21.448Z,13.96
2017-10-09T04:40:21.442Z,13.96
2017-10-09T04:41:21.420Z,14.06
2017-10-09T04:42:21.394Z,14.06
2017-10-09T04:43:21.378Z,14.15
2017-10-09T04:44:21.364Z,14.06
2017-10-09T04:45:21.356Z,13.87
2017-10-09T04:46:21.004Z,14.06
2017-10-09T04:47:20.982Z,14.15
2017-10-09T04:48:21.285Z,13.87
2017-10-09T04:49:21.269Z,14.35
2017-10-09T04:50:21.252Z,14.06
2017-10-09T04:51:20.913Z,14.82
2017-10-09T04:52:21.225Z,14.82
2017-10-09T04:53:21.199Z,14.82
2017-10-09T04:54:21.179Z,14.63
2017-10-09T04:55:21.166Z,15.11
2017-10-09T04:56:20.825Z,15.01
2017-10-09T04:57:20.808Z,14.82
2017-10-09T04:58:20.790Z,15.3
2017-10-09T04:59:20.771Z,15.39
2017-10-09T05:00:21.071Z,15.2
2017-10-09T05:01:20.737Z,15.3
2017-10-09T05:02:20.714Z,15.48
2017-10-09T05:03:20.698Z,15.48
2017-10-09T05:04:21.005Z,15.58
2017-10-09T05:05:20.665Z,15.48
2017-10-09T05:06:20.965Z,15.11
2017-10-09T05:07:20.626Z,15.3
2017-10-09T05:08:20.611Z,15.3
2017-10-09T05:09:20.604Z,15.48
2017-10-09T05:10:20.892Z,15.58
2017-10-09T05:11:20.881Z,15.48
2017-10-09T05:12:20.540Z,15.39
2017-10-09T05:13:20.524Z,15.77
2017-10-09T05:14:20.504Z,15.39
2017-10-09T05:15:20.802Z,15.3
2017-10-09T05:16:20.792Z,15.39
2017-10-09T05:17:20.772Z,15.77
2017-10-09T05:18:20.435Z,15.39
2017-10-09T05:19:20.414Z,15.3
2017-10-09T05:20:20.394Z,15.96
2017-10-09T05:21:20.377Z,15.77
2017-10-09T05:22:20.361Z,15.96
2017-10-09T05:23:20.667Z,15.96
2017-10-09T05:24:20.645Z,16.15
2017-10-09T05:25:20.306Z,16.25
2017-10-09T05:26:20.610Z,16.44
2017-10-09T05:27:20.586Z,16.06
2017-10-09T05:28:20.253Z,16.35
2017-10-09T05:29:20.555Z,16.63
2017-10-09T05:30:20.541Z,16.63
2017-10-09T05:31:20.520Z,16.82
2017-10-09T05:32:20.504Z,16.63
2017-10-09T05:33:20.165Z,17.01
2017-10-09T05:34:20.149Z,17.29
2017-10-09T05:35:20.131Z,17.2
2017-10-09T05:36:20.430Z,17.01
2017-10-09T05:37:20.091Z,17.58
2017-10-09T05:38:20.395Z,17.29
2017-10-09T05:39:20.058Z,17.96
2017-10-09T05:40:20.356Z,17.77
2017-10-09T05:41:20.022Z,17.77
2017-10-09T05:42:20.323Z,17.86
2017-10-09T05:43:19.999Z,18.15
2017-10-09T05:44:20.290Z,18.15
2017-10-09T05:45:19.947Z,18.15
2017-10-09T05:46:19.930Z,17.86
2017-10-09T05:47:19.913Z,18.05
2017-10-09T05:48:19.897Z,17.77
2017-10-09T05:49:20.196Z,17.86
2017-10-09T05:50:20.183Z,17.77
2017-10-09T05:51:20.161Z,17.96
2017-10-09T05:52:20.141Z,18.24
2017-10-09T05:53:19.804Z,17.86
2017-10-09T05:54:19.785Z,17.77
2017-10-09T05:55:19.817Z,18.05
2017-10-09T05:56:20.068Z,17.58
2017-10-09T05:57:19.733Z,17.68
2017-10-09T05:58:19.713Z,17.77
2017-10-09T05:59:20.015Z,17.68
2017-10-09T06:00:19.675Z,17.1
2017-10-09T06:01:19.986Z,16.91
2017-10-09T06:02:19.964Z,16.53
2017-10-09T06:03:19.621Z,16.44
2017-10-09T06:04:19.925Z,16.35
2017-10-09T06:05:19.590Z,16.53
2017-10-09T06:06:19.890Z,16.53
2017-10-09T06:07:19.874Z,16.44
2017-10-09T06:08:19.858Z,16.35
2017-10-09T06:09:19.513Z,16.44
2017-10-09T06:10:19.815Z,16.44
2017-10-09T06:11:19.798Z,16.35
2017-10-09T06:12:19.459Z,16.63
2017-10-09T06:13:19.442Z,16.06
2017-10-09T06:14:19.426Z,16.53
2017-10-09T06:15:19.408Z,16.35
2017-10-09T06:16:19.393Z,16.44
2017-10-09T06:17:19.374Z,16.35
2017-10-09T06:18:19.679Z,16.35
2017-10-09T06:19:19.341Z,16.06
2017-10-09T06:20:19.639Z,16.44
2017-10-09T06:21:19.301Z,16.25
2017-10-09T06:22:19.602Z,15.87
2017-10-09T06:23:19.264Z,16.25
2017-10-09T06:24:19.246Z,16.35
2017-10-09T06:25:19.551Z,16.06
2017-10-09T06:26:19.531Z,15.96
2017-10-09T06:27:19.192Z,15.68
2017-10-09T06:28:19.499Z,15.58
2017-10-09T06:29:19.154Z,15.39
2017-10-09T06:30:19.457Z,15.02
2017-10-09T06:31:19.455Z,15.02
2017-10-09T06:32:19.109Z,14.92
2017-10-09T06:33:19.412Z,14.45
2017-10-09T06:34:19.387Z,14.45
2017-10-09T06:35:19.384Z,14.17
2017-10-09T06:36:19.034Z,14.54
2017-10-09T06:37:19.337Z,14.64
2017-10-09T06:38:18.998Z,14.07
2017-10-09T06:39:18.983Z,14.17
2017-10-09T06:40:19.283Z,14.36
2017-10-09T06:41:18.952Z,14.26
2017-10-09T06:42:19.249Z,14.17
2017-10-09T06:43:19.235Z,14.26
2017-10-09T06:44:18.898Z,14.54
2017-10-09T06:45:18.880Z,14.64
2017-10-09T06:46:18.861Z,14.64
2017-10-09T06:47:19.162Z,14.64
2017-10-09T06:48:19.145Z,14.92
2017-10-09T06:49:19.127Z,14.92
2017-10-09T06:50:19.111Z,14.84
2017-10-09T06:51:19.094Z,14.55
2017-10-09T06:52:19.085Z,14.74
2017-10-09T06:53:18.741Z,14.84
2017-10-09T06:54:19.042Z,15.12
2017-10-09T06:55:19.029Z,15.5
2017-10-09T06:56:19.006Z,15.41
2017-10-09T06:57:18.988Z,15.6
2017-10-09T06:58:18.656Z,15.98
2017-10-09T06:59:18.636Z,15.79
2017-10-09T07:00:18.939Z,16.08
2017-10-09T07:01:18.607Z,16.17
2017-10-09T07:02:18.911Z,16.27
2017-10-09T07:03:18.569Z,16.36
2017-10-09T07:04:18.554Z,16.46
2017-10-09T07:05:18.859Z,16.36
2017-10-09T07:06:18.518Z,16.46
2017-10-09T07:07:18.822Z,16.55
2017-10-09T07:08:18.480Z,16.55
2017-10-09T07:09:18.793Z,16.55
2017-10-09T07:10:18.452Z,16.36
2017-10-09T07:11:18.431Z,16.46
2017-10-09T07:12:18.417Z,16.17
2017-10-09T07:13:18.723Z,16.17
2017-10-09T07:14:18.698Z,16.55
2017-10-09T07:15:18.685Z,16.46
2017-10-09T07:16:18.665Z,16.74
2017-10-09T07:17:18.652Z,16.46
2017-10-09T07:18:18.633Z,16.64
2017-10-09T07:19:18.623Z,16.74
2017-10-09T07:20:18.281Z,16.83
2017-10-09T07:21:18.270Z,17.22
2017-10-09T07:22:18.574Z,17.5
2017-10-09T07:23:18.561Z,17.79
2017-10-09T07:24:18.216Z,17.89
2017-10-09T07:25:18.197Z,18.08
2017-10-09T07:26:18.502Z,18.08
2017-10-09T07:27:18.167Z,18.55
2017-10-09T07:28:18.144Z,18.65
2017-10-09T07:29:18.446Z,18.65
2017-10-09T07:30:18.431Z,18.65
2017-10-09T07:31:18.420Z,18.65
2017-10-09T07:32:18.400Z,19.42
2017-10-09T07:33:18.064Z,19.32
2017-10-09T07:34:18.366Z,19.89
2017-10-09T07:35:18.353Z,20.46
2017-10-09T07:36:18.336Z,20.75
2017-10-09T07:37:18.317Z,21.22
2017-10-09T07:38:18.299Z,21.12
2017-10-09T07:39:18.281Z,21.41
2017-10-09T07:40:17.949Z,21.51
2017-10-09T07:41:18.268Z,21.89
2017-10-09T07:42:18.238Z,22.27
2017-10-09T07:43:18.219Z,22.27
2017-10-09T07:44:17.881Z,22.55
2017-10-09T07:45:18.186Z,22.55
2017-10-09T07:46:18.177Z,23.22
2017-10-09T07:47:18.154Z,23.79
2017-10-09T07:48:17.813Z,24.37
2017-10-09T07:49:18.120Z,24.57
2017-10-09T07:50:18.103Z,25.04
2017-10-09T07:51:18.085Z,25.33
2017-10-09T07:52:18.068Z,25.81
2017-10-09T07:53:18.068Z,25.99
2017-10-09T07:54:17.716Z,26.18
2017-10-09T07:55:17.699Z,26.85
2017-10-09T07:56:18.001Z,27.33
2017-10-09T07:57:17.990Z,27.51
2017-10-09T07:58:17.970Z,28.47
2017-10-09T07:59:17.634Z,29.23
2017-10-09T08:00:17.950Z,29.61
2017-10-09T08:01:17.921Z,30.28
2017-10-09T08:02:17.904Z,31.9
2017-10-09T08:03:17.572Z,32.95
2017-10-09T08:04:17.553Z,32.95
2017-10-09T08:05:17.860Z,33.61
2017-10-09T08:06:17.526Z,34.56
2017-10-09T08:07:17.828Z,34.58
2017-10-09T08:08:17.807Z,34.58
2017-10-09T08:09:17.480Z,34.77
2017-10-09T08:10:17.785Z,36.1
2017-10-09T08:11:17.446Z,37.63
2017-10-09T08:12:17.429Z,37.63
2017-10-09T08:13:17.410Z,38.1
2017-10-09T08:14:17.717Z,38.68
2017-10-09T08:15:17.702Z,40.97
2017-10-09T08:16:17.365Z,40.58
2017-10-09T08:17:17.669Z,40.87
2017-10-09T08:18:18.057Z,41.44
2017-10-09T08:19:17.314Z,42.99
2017-10-09T08:20:17.621Z,46.11
2017-10-09T08:21:17.287Z,47.06
2017-10-09T08:22:17.593Z,49.06
2017-10-09T08:23:17.577Z,47.47
2017-10-09T08:24:17.558Z,46.7
2017-10-09T08:25:17.547Z,46.23
2017-10-09T08:26:17.208Z,45.37
2017-10-09T08:27:17.518Z,47.75
2017-10-09T08:28:17.182Z,50.9
2017-10-09T08:29:17.484Z,55.95
2017-10-09T08:30:17.471Z,55.19
2017-10-09T08:31:17.132Z,53.66
2017-10-09T08:32:17.121Z,55.95
2017-10-09T08:33:17.102Z,54.43
2017-10-09T08:34:17.085Z,54.43
2017-10-09T08:35:17.395Z,55.19
2017-10-09T08:36:17.057Z,54.43
2017-10-09T08:37:17.359Z,52.8
2017-10-09T08:38:17.349Z,51.76
2017-10-09T08:39:17.026Z,53.09
2017-10-09T08:40:16.998Z,53.56
2017-10-09T08:41:17.301Z,53.19
2017-10-09T08:42:17.288Z,52.71
2017-10-09T08:43:17.270Z,53.56
2017-10-09T08:44:16.936Z,55.76
2017-10-09T08:45:17.237Z,53.76
2017-10-09T08:46:16.907Z,56.81
2017-10-09T08:47:16.897Z,54.24
2017-10-09T08:48:16.878Z,53
2017-10-09T08:49:16.860Z,51.66
2017-10-09T08:50:17.167Z,55.76
2017-10-09T08:51:16.830Z,54.14
2017-10-09T08:52:16.814Z,52.61
2017-10-09T08:53:17.122Z,53
2017-10-09T08:54:16.784Z,53.09
2017-10-09T08:55:17.091Z,56.71
2017-10-09T08:56:17.077Z,54.9
2017-10-09T08:57:17.069Z,55.47
2017-10-09T08:58:16.729Z,53.76
2017-10-09T08:59:17.036Z,52.71
2017-10-09T09:00:16.693Z,51.47
2017-10-09T09:01:16.681Z,51.66
2017-10-09T09:02:16.988Z,51.47
2017-10-09T09:03:16.650Z,53.76
2017-10-09T09:04:16.959Z,53.76
2017-10-09T09:05:16.937Z,53.09
2017-10-09T09:06:16.921Z,53.66
2017-10-09T09:07:16.587Z,52.8
2017-10-09T09:08:16.572Z,53.66
2017-10-09T09:09:16.880Z,52.71
2017-10-09T09:10:16.541Z,53.47
2017-10-09T09:11:16.526Z,56.52
2017-10-09T09:12:16.837Z,55.66
2017-10-09T09:13:16.815Z,53.19
2017-10-09T09:14:16.482Z,51.47
2017-10-09T09:15:16.470Z,50.61
2017-10-09T09:16:16.770Z,50.04
2017-10-09T09:17:16.755Z,49.56
2017-10-09T09:18:16.422Z,51.47
2017-10-09T09:19:16.726Z,51.66
2017-10-09T09:20:16.712Z,49.76
2017-10-09T09:21:16.699Z,50.42
2017-10-09T09:22:16.685Z,49.08
2017-10-09T09:23:16.348Z,46.99
2017-10-09T09:24:16.330Z,46.61
2017-10-09T09:25:16.315Z,45.08
2017-10-09T09:26:16.628Z,43.46
2017-10-09T09:27:16.607Z,44.6
2017-10-09T09:28:16.597Z,44.23
2017-10-09T09:29:16.253Z,43.27
2017-10-09T09:30:16.561Z,41.36
2017-10-09T09:31:16.224Z,39.46
2017-10-09T09:32:16.533Z,37.27
2017-10-09T09:33:16.517Z,37.46
2017-10-09T09:34:16.495Z,35.93
2017-10-09T09:35:16.484Z,34.5
2017-10-09T09:36:16.146Z,34.12
2017-10-09T09:37:16.453Z,33.45
2017-10-09T09:38:16.442Z,33.93
2017-10-09T09:39:16.102Z,32.5
2017-10-09T09:40:16.406Z,31.64
2017-10-09T09:41:16.395Z,31.84
2017-10-09T09:42:16.377Z,29.93
2017-10-09T09:43:16.039Z,29.55
2017-10-09T09:44:16.350Z,28.59
2017-10-09T09:45:16.336Z,27.36
2017-10-09T09:46:16.317Z,26.59
2017-10-09T09:47:16.303Z,26.21
2017-10-09T09:48:16.284Z,25.54
2017-10-09T09:49:16.268Z,25.26
2017-10-09T09:50:16.249Z,24.49
2017-10-09T09:51:16.256Z,24.49
2017-10-09T09:52:16.224Z,24.21
2017-10-09T09:53:16.208Z,23.73
2017-10-09T09:54:15.868Z,23.73
2017-10-09T09:55:16.171Z,23.73
2017-10-09T09:56:16.165Z,22.78
2017-10-09T09:57:16.144Z,21.83
2017-10-09T09:58:16.130Z,21.35
2017-10-09T09:59:16.109Z,20.6
2017-10-09T10:00:15.777Z,19.93
2017-10-09T10:01:16.079Z,19.35
2017-10-09T10:02:15.750Z,19.45
2017-10-09T10:03:16.051Z,19.45
2017-10-09T10:04:15.714Z,19.45
2017-10-09T10:05:15.699Z,19.55
2017-10-09T10:06:16.007Z,20.4
2017-10-09T10:07:15.990Z,20.88
2017-10-09T10:08:15.973Z,22.22
2017-10-09T10:09:15.636Z,23.84
2017-10-09T10:10:15.943Z,24.22
2017-10-09T10:11:15.931Z,24.79
2017-10-09T10:12:15.921Z,25.37
2017-10-09T10:13:15.576Z,25.18
2017-10-09T10:14:15.886Z,26.7
2017-10-09T10:15:15.870Z,28.13
2017-10-09T10:16:15.534Z,28.42
2017-10-09T10:17:15.518Z,30.42
2017-10-09T10:18:16.033Z,30.63
2017-10-09T10:19:15.808Z,31.1
2017-10-09T10:20:15.473Z,30.72
2017-10-09T10:21:15.780Z,31.29
2017-10-09T10:22:15.769Z,30.34
2017-10-09T10:23:15.429Z,30.34
2017-10-09T10:24:15.735Z,31.77
2017-10-09T10:25:15.729Z,31.87
2017-10-09T10:26:15.709Z,31.01
2017-10-09T10:27:15.368Z,29.77
2017-10-09T10:28:15.673Z,28.53
2017-10-09T10:29:15.667Z,28.33
2017-10-09T10:30:15.648Z,29.86
2017-10-09T10:31:15.631Z,29.77
2017-10-09T10:32:15.298Z,29.58
2017-10-09T10:33:15.610Z,30.91
2017-10-09T10:34:15.271Z,30.82
2017-10-09T10:35:15.580Z,31.29
2017-10-09T10:36:15.564Z,29.96
2017-10-09T10:37:15.544Z,29.86
2017-10-09T10:38:15.214Z,29.67
2017-10-09T10:39:15.195Z,30.43
2017-10-09T10:40:15.504Z,29.86
2017-10-09T10:41:15.486Z,28.91
2017-10-09T10:42:15.155Z,28.62
2017-10-09T10:43:15.137Z,32.53
2017-10-09T10:44:15.442Z,32.53
2017-10-09T10:45:15.422Z,32.73
2017-10-09T10:46:15.413Z,32.24
2017-10-09T10:47:15.395Z,32.44
2017-10-09T10:48:15.385Z,32.24
2017-10-09T10:49:15.047Z,32.53
2017-10-09T10:50:15.353Z,35.21
2017-10-09T10:51:15.340Z,36.92
2017-10-09T10:52:15.326Z,36.25
2017-10-09T10:53:15.305Z,35.59
2017-10-09T10:54:14.972Z,36.44
2017-10-09T10:55:14.961Z,37.68
2017-10-09T10:56:15.262Z,36.83
2017-10-09T10:57:15.250Z,35.3
2017-10-09T10:58:14.914Z,35.39
2017-10-09T10:59:14.899Z,34.16
2017-10-09T11:00:14.884Z,36.92
2017-10-09T11:01:14.871Z,37.3
2017-10-09T11:02:15.182Z,37.02
2017-10-09T11:03:14.841Z,35.87
2017-10-09T11:04:14.826Z,36.16
2017-10-09T11:05:15.137Z,37.4
2017-10-09T11:06:14.798Z,37.49
2017-10-09T11:07:15.105Z,35.78
2017-10-09T11:08:14.772Z,35.32
2017-10-09T11:09:14.756Z,35.8
2017-10-09T11:10:14.742Z,37.23
2017-10-09T11:11:14.730Z,38.18
2017-10-09T11:12:15.033Z,41.52
2017-10-09T11:13:14.698Z,41.24
2017-10-09T11:14:14.689Z,41.62
2017-10-09T11:15:14.994Z,40.86
2017-10-09T11:16:14.976Z,41.05
2017-10-09T11:17:14.969Z,40.97
2017-10-09T11:18:14.952Z,46.51
2017-10-09T11:19:14.617Z,48.8
2017-10-09T11:20:14.603Z,48.61
2017-10-09T11:21:14.598Z,46.39
2017-10-09T11:22:14.900Z,47.63
2017-10-09T11:23:14.884Z,52.53
2017-10-09T11:24:14.873Z,49.09
2017-10-09T11:25:14.536Z,52.43
2017-10-09T11:26:14.524Z,50.71
2017-10-09T11:27:14.832Z,48.71
2017-10-09T11:28:14.815Z,53.77
2017-10-09T11:29:14.810Z,52.53
2017-10-09T11:30:14.797Z,50.52
2017-10-09T11:31:14.459Z,51.67
2017-10-09T11:32:14.443Z,52.43
2017-10-09T11:33:14.757Z,56.16
2017-10-09T11:34:14.741Z,56.35
2017-10-09T11:35:14.410Z,57.68
2017-10-09T11:36:14.711Z,56.35
2017-10-09T11:37:14.706Z,54.63
2017-10-09T11:38:14.697Z,55.68
2017-10-09T11:39:14.676Z,56.54
2017-10-09T11:40:14.346Z,54.63
2017-10-09T11:41:14.326Z,52.34
2017-10-09T11:42:14.315Z,52.43
2017-10-09T11:43:14.622Z,52.36
2017-10-09T11:44:14.291Z,52.46
2017-10-09T11:45:14.601Z,53.13
2017-10-09T11:46:14.263Z,57.43
2017-10-09T11:47:14.250Z,55.04
2017-10-09T11:48:14.556Z,61.35
2017-10-09T11:49:14.228Z,58.48
2017-10-09T11:50:14.537Z,56.73
2017-10-09T11:51:14.201Z,55.96
2017-10-09T11:52:14.506Z,54.82
2017-10-09T11:53:14.502Z,57.31
2017-10-09T11:54:14.481Z,55.11
2017-10-09T11:55:14.476Z,53.86
2017-10-09T11:56:14.463Z,51.95
2017-10-09T11:57:14.446Z,50.55
2017-10-09T11:58:14.113Z,50.35
2017-10-09T11:59:14.424Z,47.18
2017-10-09T12:00:14.087Z,48.73
2017-10-09T12:01:14.396Z,51.31
2017-10-09T12:02:14.382Z,53.61
2017-10-09T12:03:14.370Z,52.94
2017-10-09T12:04:14.039Z,54.27
2017-10-09T12:05:14.022Z,52.36
2017-10-09T12:06:14.330Z,52.17
2017-10-09T12:07:14.001Z,51.79
2017-10-09T12:08:13.995Z,50.45
2017-10-09T12:09:14.298Z,47.87
2017-10-09T12:10:14.282Z,50.35
2017-10-09T12:11:13.947Z,50.45
2017-10-09T12:12:13.940Z,48.64
2017-10-09T12:13:14.240Z,46.53
2017-10-09T12:14:13.907Z,45.96
2017-10-09T12:15:13.897Z,45.77
2017-10-09T12:16:14.211Z,46.15
2017-10-09T12:17:13.867Z,50.16
2017-10-09T12:18:14.383Z,49.21
2017-10-09T12:19:14.162Z,48.93
2017-10-09T12:20:14.148Z,50.55
2017-10-09T12:21:14.140Z,47.87
2017-10-09T12:22:13.810Z,47.78
2017-10-09T12:23:14.117Z,46.44
2017-10-09T12:24:13.777Z,47.3
2017-10-09T12:25:13.768Z,50.93
2017-10-09T12:26:14.073Z,49.21
2017-10-09T12:27:13.744Z,49.21
2017-10-09T12:28:13.731Z,48.44
2017-10-09T12:29:14.042Z,50.55
2017-10-09T12:30:14.028Z,48.25
2017-10-09T12:31:14.011Z,48.73
2017-10-09T12:32:13.682Z,46.72
2017-10-09T12:33:13.667Z,48.54
2017-10-09T12:34:13.984Z,49.59
2017-10-09T12:35:13.641Z,50.93
2017-10-09T12:36:13.946Z,49.21
2017-10-09T12:37:13.941Z,47.39
2017-10-09T12:38:13.928Z,47.3
2017-10-09T12:39:13.910Z,46.25
2017-10-09T12:40:13.898Z,48.73
2017-10-09T12:41:13.886Z,48.66
2017-10-09T12:42:13.876Z,48.75
2017-10-09T12:43:13.539Z,48.38
2017-10-09T12:44:13.849Z,50.19
2017-10-09T12:45:13.514Z,49.52
2017-10-09T12:46:13.503Z,48.47
2017-10-09T12:47:13.490Z,48.95
2017-10-09T12:48:13.796Z,47.52
2017-10-09T12:49:13.790Z,47.71
2017-10-09T12:50:13.772Z,46.46
2017-10-09T12:51:13.759Z,48.95
2017-10-09T12:52:13.751Z,47.8
2017-10-09T12:53:13.738Z,49.14
2017-10-09T12:54:13.730Z,48.49
2017-10-09T12:55:13.397Z,48.68